Time;durP1;ratioP1;P1;durP2;ratioP2;P2;SDS_P1;SDS_P2;PMS_P1;PMS_P2;Temp;Humidity;BMP_temperature;BMP_pressure;BME280_temperature;BME280_humidity;BME280_pressure;Samples;Min_cycle;Max_cycle;Signal;HPM_P1;HPM_P2
2023/07/25 00:01:34;;;;;;;2.83;1.98;;;13.40;99.90;;;;;;5155687;27;20356;-43
2023/07/25 00:04:00;;;;;;;2.97;1.60;;;16.00;99.90;;;;;;5155482;27;20037;-53
2023/07/25 00:06:26;;;;;;;2.33;1.48;;;;;;;;;;5155088;27;20094;-48
2023/07/25 00:08:51;;;;;;;3.97;1.90;;;13.00;99.90;;;;;;5155207;27;20356;-54
2023/07/25 00:11:17;;;;;;;2.20;1.25;;;16.00;99.90;;;;;;5155171;27;20031;-47
2023/07/25 00:13:43;;;;;;;3.25;1.63;;;15.70;99.90;;;;;;5155240;27;20015;-45
2023/07/25 00:16:08;;;;;;;4.45;1.60;;;16.30;99.90;;;;;;5155277;27;20449;-43
2023/07/25 00:18:34;;;;;;;2.83;1.52;;;16.30;99.90;;;;;;5155178;27;20061;-53
2023/07/25 00:20:59;;;;;;;2.78;1.33;;;15.90;99.90;;;;;;5155221;27;20027;-42
2023/07/25 00:23:25;;;;;;;2.65;1.50;;;15.40;99.90;;;;;;5154717;27;20010;-43
2023/07/25 00:25:51;;;;;;;3.00;1.60;;;;;;;;;;5155011;27;20042;-47
2023/07/25 00:28:17;;;;;;;3.10;1.80;;;15.20;99.90;;;;;;5154909;27;20395;-49
2023/07/25 00:30:42;;;;;;;2.78;1.60;;;15.90;99.90;;;;;;5154901;27;20026;-46
2023/07/25 00:33:08;;;;;;;3.92;1.80;;;11.40;99.90;;;;;;5154850;27;20034;-44
2023/07/25 00:35:33;;;;;;;4.93;1.70;;;15.80;99.90;;;;;;5154647;27;20018;-44
2023/07/25 00:37:59;;;;;;;2.97;1.77;;;14.50;99.90;;;;;;5154745;27;20027;-50
2023/07/25 00:40:25;;;;;;;5.00;2.30;;;13.00;99.90;;;;;;5154485;27;20022;-56
2023/07/25 00:42:54;;;;;;;3.00;2.05;;;12.10;99.90;;;;;;5154784;27;20474;-50
2023/07/25 00:45:20;;;;;;;;;;;14.90;99.90;;;;;;5155023;27;20027;-46
2023/07/25 00:47:46;;;;;;;3.25;1.67;;;;;;;;;;5154729;27;19907;-42
2023/07/25 00:50:12;;;;;;;2.53;1.30;;;14.40;99.90;;;;;;5154273;27;20392;-42
2023/07/25 00:52:37;;;;;;;3.53;1.58;;;15.50;99.90;;;;;;5138976;27;20079;-42
2023/07/25 00:55:04;;;;;;;3.30;1.55;;;15.50;99.90;;;;;;5154548;27;20023;-42
2023/07/25 00:57:30;;;;;;;5.63;1.55;;;13.00;99.90;;;;;;5154250;27;20051;-43
2023/07/25 00:59:56;;;;;;;3.42;1.55;;;15.70;99.90;;;;;;5154378;27;20033;-46
2023/07/25 01:02:22;;;;;;;2.03;1.42;;;;;;;;;;5154254;27;20047;-48
2023/07/25 01:04:48;;;;;;;3.15;1.38;;;;;;;;;;5154106;27;20019;-48
2023/07/25 01:07:14;;;;;;;2.35;1.40;;;;;;;;;;5154078;27;20486;-48
2023/07/25 01:09:43;;;;;;;2.97;1.50;;;14.60;99.90;;;;;;5154039;27;20019;-43
2023/07/25 01:12:09;;;;;;;2.23;1.20;;;16.50;99.90;;;;;;5154311;27;20151;-49
2023/07/25 01:14:36;;;;;;;5.78;1.98;;;;;;;;;;5154112;27;20031;-45
2023/07/25 01:17:16;;;;;;;2.20;1.05;;;13.80;99.90;;;;;;5153955;27;20030;-52
2023/07/25 01:19:46;;;;;;;2.25;1.42;;;16.60;99.90;;;;;;5153741;27;20661;-43
2023/07/25 01:22:12;;;;;;;2.33;1.20;;;14.40;99.90;;;;;;5154112;27;20050;-46
2023/07/25 01:24:46;;;;;;;2.67;1.52;;;15.50;99.90;;;;;;5154106;27;20026;-48
2023/07/25 01:27:13;;;;;;;5.82;1.65;;;15.50;99.90;;;;;;5127006;27;20041;-45
2023/07/25 01:29:38;;;;;;;2.35;1.33;;;16.30;99.90;;;;;;5153716;27;20383;-48
2023/07/25 01:32:05;;;;;;;3.65;1.48;;;14.20;99.90;;;;;;5153559;27;20019;-50
2023/07/25 01:34:30;;;;;;;5.43;1.35;;;11.90;99.90;;;;;;5153381;27;20027;-47
2023/07/25 01:36:56;;;;;;;2.83;1.58;;;;;;;;;;5153390;27;20019;-46
2023/07/25 01:39:22;;;;;;;4.88;1.63;;;16.10;99.90;;;;;;5153529;27;20485;-43
2023/07/25 01:41:48;;;;;;;5.00;1.48;;;;;;;;;;5153322;27;20019;-44
2023/07/25 01:44:13;;;;;;;2.25;1.42;;;15.10;99.90;;;;;;5153474;27;20054;-49
2023/07/25 01:46:41;;;;;;;2.80;1.15;;;12.10;99.90;;;;;;5153345;27;20065;-44
2023/07/25 01:49:10;;;;;;;2.55;1.42;;;16.20;99.90;;;;;;5153127;27;20019;-43
2023/07/25 01:51:36;;;;;;;2.30;1.30;;;14.70;99.90;;;;;;5145022;27;20019;-45
2023/07/25 01:54:02;;;;;;;3.67;1.63;;;;;;;;;;5147061;27;20037;-44
2023/07/25 01:56:28;;;;;;;3.05;1.60;;;;;;;;;;5124192;27;20035;-46
2023/07/25 01:58:54;;;;;;;6.55;2.67;;;;;;;;;;5153105;27;20105;-47
2023/07/25 02:01:20;;;;;;;3.35;1.70;;;12.80;99.90;;;;;;5152892;27;20023;-52
2023/07/25 02:03:46;;;;;;;2.80;1.63;;;;;;;;;;5152830;27;20068;-45
2023/07/25 02:06:11;;;;;;;4.30;1.30;;;15.20;99.90;;;;;;5152267;27;20045;-48
2023/07/25 02:08:37;;;;;;;1.80;1.20;;;11.70;99.90;;;;;;5144288;27;20015;-43
2023/07/25 02:11:03;;;;;;;2.20;1.40;;;;;;;;;;5131873;27;20156;-44
2023/07/25 02:13:28;;;;;;;4.07;1.50;;;15.00;99.90;;;;;;5132066;27;20008;-49
2023/07/25 02:15:54;;;;;;;4.25;1.60;;;12.40;99.90;;;;;;5132059;27;20027;-48
2023/07/25 02:18:19;;;;;;;2.60;1.33;;;15.40;99.90;;;;;;5130493;27;20030;-47
2023/07/25 02:20:45;;;;;;;4.35;1.27;;;;;;;;;;5132055;27;20045;-47
2023/07/25 02:23:11;;;;;;;1.90;1.23;;;15.00;99.90;;;;;;5131929;27;20019;-44
2023/07/25 02:25:37;;;;;;;2.58;1.40;;;14.70;99.90;;;;;;5131688;27;20035;-43
2023/07/25 02:28:02;;;;;;;1.83;1.20;;;14.70;99.90;;;;;;5130612;27;20023;-43
2023/07/25 02:30:28;;;;;;;2.65;1.42;;;12.80;99.90;;;;;;5131646;27;20092;-43
2023/07/25 02:32:53;;;;;;;3.25;1.45;;;15.90;99.90;;;;;;5131828;27;20033;-43
2023/07/25 02:35:19;;;;;;;3.65;1.48;;;15.20;99.90;;;;;;5131571;27;20019;-49
2023/07/25 02:37:45;;;;;;;2.92;1.40;;;;;;;;;;5131576;27;20118;-46
2023/07/25 02:40:11;;;;;;;1.85;1.23;;;;;;;;;;5131768;27;20083;-51
2023/07/25 02:42:37;;;;;;;4.30;1.67;;;14.80;99.90;;;;;;5131301;27;20475;-48
2023/07/25 02:45:03;;;;;;;4.60;1.63;;;15.00;99.90;;;;;;5131486;27;20068;-55
2023/07/25 02:47:29;;;;;;;3.10;1.58;;;;;;;;;;5131451;27;20372;-43
2023/07/25 02:49:54;;;;;;;3.83;1.40;;;15.90;99.90;;;;;;5131560;27;20027;-45
2023/07/25 02:52:20;;;;;;;6.95;1.85;;;14.30;99.90;;;;;;5131460;27;20023;-47
2023/07/25 02:54:45;;;;;;;4.18;1.67;;;16.00;99.90;;;;;;5137670;27;20087;-48
2023/07/25 02:57:11;;;;;;;2.90;1.60;;;14.40;99.90;;;;;;5151970;27;20039;-49
2023/07/25 02:59:37;;;;;;;3.30;1.80;;;11.50;99.90;;;;;;5151840;27;20026;-47
2023/07/25 03:02:02;;;;;;;2.80;1.48;;;12.40;99.90;;;;;;5150546;27;20050;-46
2023/07/25 03:04:29;;;;;;;3.45;1.70;;;14.00;99.90;;;;;;5151757;27;20031;-47
2023/07/25 03:06:54;;;;;;;3.78;1.75;;;;;;;;;;5151885;27;20031;-43
2023/07/25 03:09:20;;;;;;;7.20;2.35;;;;;;;;;;5151974;27;20115;-43
2023/07/25 03:11:46;;;;;;;2.33;1.30;;;;;;;;;;5123393;27;20026;-43
2023/07/25 03:14:12;;;;;;;2.85;1.55;;;12.10;99.90;;;;;;5152009;27;20025;-48
2023/07/25 03:16:38;;;;;;;3.35;1.88;;;11.80;99.90;;;;;;5153463;27;20428;-46
2023/07/25 03:19:03;;;;;;;2.08;1.30;;;16.20;99.90;;;;;;5133856;27;20102;-44
2023/07/25 03:21:29;;;;;;;3.13;1.58;;;13.40;99.90;;;;;;5135117;27;20037;-46
2023/07/25 03:23:55;;;;;;;3.65;1.77;;;;;;;;;;5134026;27;20054;-47
2023/07/25 03:26:21;;;;;;;3.78;1.40;;;;;;;;;;5135197;27;20471;-47
2023/07/25 03:28:46;;;;;;;2.10;1.50;;;11.80;99.90;;;;;;5135196;27;20019;-47
2023/07/25 03:31:12;;;;;;;3.78;1.70;;;;;;;;;;5134822;27;20460;-50
2023/07/25 03:33:38;;;;;;;3.45;1.90;;;14.50;99.90;;;;;;5135117;27;20015;-46
2023/07/25 03:36:04;;;;;;;1.45;1.20;;;11.60;99.90;;;;;;5134783;27;20444;-51
2023/07/25 03:38:30;;;;;;;3.53;1.50;;;14.60;99.90;;;;;;5135157;27;20123;-47
2023/07/25 03:40:56;;;;;;;4.40;1.50;;;;;;;;;;5134895;27;20486;-45
2023/07/25 03:43:21;;;;;;;5.25;1.70;;;15.80;99.90;;;;;;5134947;27;20015;-56
2023/07/25 03:45:47;;;;;;;3.53;1.90;;;11.00;99.90;;;;;;5134902;27;20403;-43
2023/07/25 03:48:13;;;;;;;3.00;1.60;;;;;;;;;;5134828;27;20462;-49
2023/07/25 03:50:39;;;;;;;11.73;1.88;;;14.20;99.90;;;;;;5134811;27;20353;-46
2023/07/25 03:53:05;;;;;;;4.55;1.88;;;;;;;;;;5134756;27;20083;-52
2023/07/25 03:55:31;;;;;;;2.88;1.42;;;14.40;99.90;;;;;;5134917;27;20508;-46
2023/07/25 03:57:57;;;;;;;2.78;1.48;;;;;;;;;;5133123;27;20047;-51
2023/07/25 04:00:23;;;;;;;2.50;1.60;;;14.50;99.90;;;;;;5134458;27;20030;-47
2023/07/25 04:02:49;;;;;;;2.75;1.67;;;12.30;99.90;;;;;;5134727;27;20027;-51
2023/07/25 04:05:15;;;;;;;2.80;1.55;;;11.20;99.90;;;;;;5134428;27;20495;-47
2023/07/25 04:07:40;;;;;;;2.83;1.52;;;13.90;99.90;;;;;;5134499;27;20088;-55
2023/07/25 04:10:06;;;;;;;4.38;1.70;;;15.80;99.90;;;;;;5132589;27;20426;-45
2023/07/25 04:12:32;;;;;;;7.20;1.65;;;;;;;;;;5134301;27;20034;-51
2023/07/25 04:14:59;;;;;;;3.03;1.52;;;;;;;;;;5134180;27;20490;-45
2023/07/25 04:17:24;;;;;;;2.83;1.40;;;11.10;99.90;;;;;;5134224;27;20399;-51
2023/07/25 04:19:50;;;;;;;2.47;1.45;;;;;;;;;;5134431;27;20031;-47
2023/07/25 04:22:16;;;;;;;2.50;1.40;;;13.50;99.90;;;;;;5134102;27;20038;-49
2023/07/25 04:24:41;;;;;;;3.80;1.77;;;10.80;99.90;;;;;;5133211;27;20027;-49
2023/07/25 04:27:07;;;;;;;4.07;1.55;;;13.70;99.90;;;;;;5132573;27;20049;-48
2023/07/25 04:29:33;;;;;;;9.65;1.83;;;11.00;99.90;;;;;;5133384;27;20015;-50
2023/07/25 04:31:59;;;;;;;3.20;1.70;;;;;;;;;;5133675;27;20058;-47
2023/07/25 04:34:25;;;;;;;3.25;1.75;;;;;;;;;;5133155;27;20019;-51
2023/07/25 04:36:51;;;;;;;2.38;1.38;;;;;;;;;;5133445;27;20024;-45
2023/07/25 04:39:17;;;;;;;7.53;2.47;;;11.20;99.90;;;;;;5133002;27;20023;-45
2023/07/25 04:41:43;;;;;;;2.83;1.63;;;;;;;;;;5133286;27;20046;-50
2023/07/25 04:44:09;;;;;;;4.28;1.85;;;;;;;;;;5133447;27;20029;-48
2023/07/25 04:46:34;;;;;;;4.03;1.60;;;11.10;99.90;;;;;;5133219;27;20088;-49
2023/07/25 04:49:01;;;;;;;3.25;1.38;;;;;;;;;;5131893;27;20019;-49
2023/07/25 04:51:26;;;;;;;3.45;1.50;;;13.80;99.90;;;;;;5132201;27;20023;-47
2023/07/25 04:53:52;;;;;;;2.40;1.63;;;11.00;99.90;;;;;;5133298;27;20019;-48
2023/07/25 04:56:17;;;;;;;3.15;1.80;;;14.70;99.90;;;;;;5133191;27;20647;-53
2023/07/25 04:58:43;;;;;;;3.13;1.60;;;14.50;99.90;;;;;;5133331;27;20028;-54
2023/07/25 05:01:09;;;;;;;1.75;1.25;;;14.30;99.90;;;;;;5133047;27;20433;-43
2023/07/25 05:03:35;;;;;;;11.63;2.15;;;11.50;99.90;;;;;;5133230;27;20022;-47
2023/07/25 05:06:01;;;;;;;3.90;1.67;;;15.70;99.90;;;;;;5132948;27;20027;-55
2023/07/25 05:08:27;;;;;;;4.00;1.15;;;14.30;99.90;;;;;;5131791;27;20019;-49
2023/07/25 05:10:53;;;;;;;4.25;1.60;;;10.50;99.90;;;;;;5133072;27;20038;-45
2023/07/25 05:13:19;;;;;;;3.65;1.60;;;11.90;99.90;;;;;;5132692;27;20023;-45
2023/07/25 05:15:45;;;;;;;6.68;2.03;;;;;;;;;;5132923;27;20039;-44
2023/07/25 05:18:11;;;;;;;5.18;1.60;;;;;;;;;;5132571;27;20035;-52
2023/07/25 05:20:37;;;;;;;3.58;1.83;;;;;;;;;;5132542;27;20373;-51
2023/07/25 05:23:04;;;;;;;2.42;1.38;;;14.40;99.90;;;;;;5132531;27;20049;-47
2023/07/25 05:25:30;;;;;;;2.40;1.50;;;14.90;99.90;;;;;;5131281;27;20589;-49
2023/07/25 05:27:55;;;;;;;3.60;1.88;;;15.80;99.90;;;;;;5133421;27;20106;-48
2023/07/25 05:30:21;;;;;;;2.85;1.70;;;13.70;99.90;;;;;;5133157;27;20436;-48
2023/07/25 05:32:48;;;;;;;3.88;1.63;;;14.80;99.90;;;;;;5132946;27;20065;-48
2023/07/25 05:35:14;;;;;;;5.65;1.95;;;;;;;;;;5132660;27;20035;-43
2023/07/25 05:37:39;;;;;;;3.17;1.60;;;14.20;99.90;;;;;;5132758;27;20157;-47
2023/07/25 05:40:06;;;;;;;5.47;2.60;;;13.80;99.90;;;;;;5132500;27;20019;-45
2023/07/25 05:42:32;;;;;;;3.78;2.33;;;13.70;99.90;;;;;;5132575;27;20023;-49
2023/07/25 05:45:01;;;;;;;4.68;1.83;;;15.90;99.90;;;;;;5132840;27;20026;-54
2023/07/25 05:47:28;;;;;;;4.13;2.00;;;16.20;99.90;;;;;;5132965;27;20073;-56
2023/07/25 05:49:54;;;;;;;3.55;2.10;;;11.50;99.90;;;;;;5132726;27;20019;-47
2023/07/25 05:52:20;;;;;;;3.28;2.00;;;14.80;99.90;;;;;;5132706;27;20036;-45
2023/07/25 05:54:46;;;;;;;5.07;2.17;;;11.60;99.90;;;;;;5132519;27;20536;-45
2023/07/25 05:57:12;;;;;;;6.07;2.85;;;14.50;99.90;;;;;;5132494;27;20055;-47
2023/07/25 05:59:37;;;;;;;5.13;2.50;;;16.20;99.90;;;;;;5132383;27;20030;-50
2023/07/25 06:02:04;;;;;;;4.03;2.22;;;16.60;99.90;;;;;;5132556;27;20023;-46
2023/07/25 06:04:30;;;;;;;6.15;2.53;;;;;;;;;;5131076;27;20348;-48
2023/07/25 06:06:56;;;;;;;4.07;2.47;;;15.30;99.90;;;;;;5132149;27;20035;-47
2023/07/25 06:09:21;;;;;;;4.72;2.30;;;15.90;99.90;;;;;;5132345;27;20034;-46
2023/07/25 06:11:47;;;;;;;3.65;1.90;;;16.10;99.90;;;;;;5132083;27;20464;-47
2023/07/25 06:14:12;;;;;;;4.20;2.35;;;16.30;99.90;;;;;;5132186;27;20023;-52
2023/07/25 06:16:38;;;;;;;4.05;2.53;;;;;;;;;;5132161;27;20019;-43
2023/07/25 06:19:04;;;;;;;4.00;2.00;;;;;;;;;;5132175;27;20019;-51
2023/07/25 06:21:30;;;;;;;5.63;2.22;;;;;;;;;;5132228;27;20114;-43
2023/07/25 06:23:56;;;;;;;3.35;1.77;;;21.60;99.90;;;;;;5131805;27;20023;-47
2023/07/25 06:26:21;;;;;;;5.88;2.03;;;19.60;99.90;;;;;;5131773;27;20024;-43
2023/07/25 06:28:47;;;;;;;3.53;1.67;;;19.30;99.90;;;;;;5132048;27;20027;-46
2023/07/25 06:31:13;;;;;;;5.20;2.22;;;17.90;99.90;;;;;;5131529;27;20019;-57
2023/07/25 06:33:38;;;;;;;4.63;2.28;;;16.50;99.90;;;;;;5131923;27;20107;-48
2023/07/25 06:36:04;;;;;;;3.38;2.03;;;18.60;99.90;;;;;;5131444;27;20023;-51
2023/07/25 06:38:29;;;;;;;2.78;1.70;;;18.70;99.90;;;;;;5131590;27;20015;-46
2023/07/25 06:40:56;;;;;;;4.45;2.17;;;;;;;;;;5131709;27;20034;-45
2023/07/25 06:43:22;;;;;;;4.57;1.73;;;17.10;99.90;;;;;;5131569;27;20015;-43
2023/07/25 06:45:50;;;;;;;4.03;1.92;;;21.10;99.90;;;;;;5130257;27;20395;-49
2023/07/25 06:48:16;;;;;;;5.63;1.75;;;19.50;99.90;;;;;;5134004;27;20026;-49
2023/07/25 06:50:42;;;;;;;3.83;1.45;;;18.70;99.90;;;;;;5139368;27;20027;-50
2023/07/25 06:53:07;;;;;;;4.10;1.80;;;15.60;99.90;;;;;;5131265;27;20027;-50
2023/07/25 06:55:34;;;;;;;4.00;1.50;;;15.90;99.90;;;;;;5131572;27;20015;-48
2023/07/25 06:58:01;;;;;;;4.07;2.13;;;;;;;;;;5131261;27;20051;-45
2023/07/25 07:00:26;;;;;;;4.05;1.60;;;15.80;99.90;;;;;;5130199;27;20019;-53
2023/07/25 07:02:53;;;;;;;1.98;1.25;;;19.00;99.90;;;;;;5131270;27;20381;-53
2023/07/25 07:05:19;;;;;;;6.78;1.83;;;;;;;;;;5132757;27;20026;-45
2023/07/25 07:07:44;;;;;;;3.63;1.48;;;20.90;99.90;;;;;;5139527;27;20035;-53
2023/07/25 07:10:10;;;;;;;3.88;1.60;;;19.80;99.90;;;;;;5144498;27;20019;-52
2023/07/25 07:12:35;;;;;;;3.83;1.70;;;19.80;99.90;;;;;;5144472;27;20059;-47
2023/07/25 07:15:01;;;;;;;3.67;1.70;;;19.80;99.90;;;;;;5149005;27;20045;-46
2023/07/25 07:17:27;;;;;;;4.00;1.83;;;21.90;99.90;;;;;;5146266;27;20031;-51
2023/07/25 07:32:02;;;;;;;4.20;1.30;;;;;;;;;;5093631;27;20410;-47
2023/07/25 07:34:28;;;;;;;3.22;1.10;;;23.70;99.90;;;;;;5106776;28;20422;-57
2023/07/25 07:36:53;;;;;;;4.22;1.27;;;25.10;99.90;;;;;;5108023;28;20031;-51
2023/07/25 07:39:19;;;;;;;2.67;1.20;;;25.30;99.90;;;;;;5107848;28;20131;-52
2023/07/25 07:41:45;;;;;;;2.72;1.25;;;;;;;;;;5107701;28;20387;-51
2023/07/25 07:44:11;;;;;;;5.10;1.30;;;25.50;99.90;;;;;;5101225;28;20020;-52
2023/07/25 07:46:36;;;;;;;4.82;1.20;;;27.00;99.90;;;;;;5107847;28;20059;-53
2023/07/25 07:49:02;;;;;;;5.00;1.85;;;;;;;;;;5107695;28;20324;-52
2023/07/25 07:51:28;;;;;;;3.85;1.13;;;25.80;99.90;;;;;;5107708;28;20390;-50
2023/07/25 07:53:54;;;;;;;1.50;0.80;;;25.30;99.90;;;;;;5107580;28;20024;-53
2023/07/25 07:56:19;;;;;;;3.00;0.90;;;23.70;99.90;;;;;;5107259;28;20113;-52
2023/07/25 07:58:46;;;;;;;2.65;1.02;;;25.60;99.90;;;;;;5095545;28;20025;-48
2023/07/25 08:01:21;;;;;;;3.40;1.27;;;25.70;99.90;;;;;;5094348;28;20496;-53
2023/07/25 08:03:47;;;;;;;3.47;0.93;;;24.60;99.90;;;;;;5087059;28;20361;-49
2023/07/25 08:06:13;;;;;;;1.73;0.80;;;24.80;99.90;;;;;;5087160;28;20054;-49
2023/07/25 08:08:40;;;;;;;1.15;0.70;;;25.70;99.90;;;;;;5086840;28;20492;-46
2023/07/25 08:11:05;;;;;;;2.08;1.00;;;25.60;99.90;;;;;;5071275;28;20029;-46
2023/07/25 08:13:31;;;;;;;2.78;0.90;;;23.90;99.90;;;;;;5075702;28;20021;-48
2023/07/25 08:15:56;;;;;;;1.95;0.82;;;25.20;99.90;;;;;;5087445;28;20430;-48
2023/07/25 08:18:22;;;;;;;4.22;1.13;;;25.50;99.90;;;;;;5086511;28;20032;-51
2023/07/25 08:20:56;;;;;;;4.50;1.20;;;25.40;99.90;;;;;;5086753;28;20032;-52
2023/07/25 08:23:22;;;;;;;2.67;1.40;;;25.50;99.90;;;;;;5086182;28;20028;-47
2023/07/25 08:25:49;;;;;;;2.80;1.13;;;25.60;99.90;;;;;;5086593;28;20040;-49
2023/07/25 08:28:15;;;;;;;2.08;1.15;;;25.10;99.90;;;;;;5086467;28;20091;-47
2023/07/25 08:30:41;;;;;;;2.85;1.10;;;24.50;99.90;;;;;;5090387;28;20498;-47
2023/07/25 08:33:07;;;;;;;3.13;1.65;;;23.70;99.90;;;;;;5092661;28;20080;-47
2023/07/25 08:35:33;;;;;;;3.15;1.48;;;23.10;99.90;;;;;;5093298;28;20104;-47
2023/07/25 08:37:58;;;;;;;3.30;1.60;;;23.00;99.90;;;;;;5093294;28;20039;-47
2023/07/25 08:40:24;;;;;;;2.47;1.20;;;22.70;99.90;;;;;;5072696;28;20127;-50
2023/07/25 08:42:50;;;;;;;2.60;0.98;;;21.90;99.90;;;;;;5072819;28;20031;-47
2023/07/25 08:45:18;;;;;;;1.75;0.90;;;23.50;99.90;;;;;;5072581;28;20788;-55
2023/07/25 08:47:45;;;;;;;4.38;1.23;;;24.80;99.90;;;;;;5072782;28;20020;-54
2023/07/25 08:50:15;;;;;;;6.03;1.15;;;23.70;99.90;;;;;;5072517;28;20103;-53
2023/07/25 08:52:50;;;;;;;3.90;1.15;;;23.90;99.90;;;;;;5064376;28;20033;-49
2023/07/25 08:55:16;;;;;;;2.08;1.10;;;23.70;99.90;;;;;;5071169;28;20116;-49
2023/07/25 08:57:42;;;;;;;2.38;0.77;;;23.70;99.90;;;;;;5069230;28;20037;-49
2023/07/25 09:00:08;;;;;;;3.28;0.75;;;24.20;99.90;;;;;;5072399;28;20051;-47
2023/07/25 09:02:34;;;;;;;1.48;1.05;;;25.00;99.90;;;;;;5072266;28;20054;-47
2023/07/25 09:05:01;;;;;;;1.40;1.00;;;;;;;;;;5072206;28;20388;-51
2023/07/25 09:07:27;;;;;;;4.57;1.20;;;26.00;99.90;;;;;;5072524;28;20128;-47
2023/07/25 09:09:53;;;;;;;0.95;0.73;;;26.20;99.90;;;;;;5072428;28;20443;-48
2023/07/25 09:12:19;;;;;;;1.80;0.80;;;26.60;99.90;;;;;;5071947;28;20013;-47
2023/07/25 09:14:44;;;;;;;3.17;1.15;;;26.70;99.90;;;;;;5071063;28;20240;-47
2023/07/25 09:17:10;;;;;;;2.25;0.80;;;26.70;99.90;;;;;;5070706;28;20028;-47
2023/07/25 09:19:36;;;;;;;1.45;0.70;;;26.10;98.10;;;;;;5071612;28;20071;-48
2023/07/25 09:22:02;;;;;;;1.58;0.88;;;25.60;98.40;;;;;;5071569;28;20016;-48
2023/07/25 09:24:37;;;;;;;1.30;0.70;;;24.30;97.90;;;;;;5071517;28;20027;-50
2023/07/25 09:27:13;;;;;;;1.20;0.70;;;25.00;98.30;;;;;;5071737;28;20020;-47
2023/07/25 09:29:39;;;;;;;2.30;0.90;;;24.30;99.90;;;;;;5070866;28;20032;-47
2023/07/25 09:32:16;;;;;;;1.45;0.80;;;23.70;99.70;;;;;;5073704;28;20036;-51
2023/07/25 09:34:45;;;;;;;1.10;0.85;;;21.80;99.90;;;;;;5071867;28;20036;-48
2023/07/25 09:37:10;;;;;;;0.98;0.65;;;22.80;99.90;;;;;;5071738;28;20494;-53
2023/07/25 09:39:36;;;;;;;0.90;0.80;;;19.40;99.90;;;;;;5064650;28;20028;-59
2023/07/25 09:42:02;;;;;;;2.65;0.85;;;21.50;99.90;;;;;;5070287;28;20430;-52
2023/07/25 09:44:32;;;;;;;1.85;0.90;;;19.20;99.90;;;;;;5070672;28;20103;-53
2023/07/25 09:46:58;;;;;;;1.20;0.77;;;21.90;99.90;;;;;;5071909;28;20056;-51
2023/07/25 09:49:25;;;;;;;2.65;1.20;;;20.80;99.90;;;;;;5070429;28;20067;-49
2023/07/25 09:52:03;;;;;;;1.40;0.80;;;20.10;99.90;;;;;;5071548;28;20028;-46
2023/07/25 09:54:28;;;;;;;2.08;1.15;;;21.20;99.90;;;;;;5064057;28;20031;-48
2023/07/25 09:56:54;;;;;;;2.00;1.38;;;;;;;;;;5059847;28;20040;-48
2023/07/25 09:59:22;;;;;;;1.60;0.93;;;22.20;99.90;;;;;;5071163;28;20151;-50
2023/07/25 10:01:50;;;;;;;1.77;0.80;;;22.60;99.90;;;;;;5071211;28;20036;-52
2023/07/25 10:04:17;;;;;;;1.60;0.90;;;20.30;99.90;;;;;;5062953;28;20491;-48
2023/07/25 10:06:42;;;;;;;2.88;1.30;;;23.60;99.90;;;;;;5070914;28;20019;-49
2023/07/25 10:09:09;;;;;;;1.80;1.00;;;22.80;99.90;;;;;;5070953;28;20013;-51
2023/07/25 10:11:36;;;;;;;3.22;1.50;;;21.60;99.90;;;;;;5071039;28;20025;-50
2023/07/25 10:14:02;;;;;;;2.95;0.95;;;;;;;;;;5071192;28;20404;-49
2023/07/25 10:16:28;;;;;;;4.28;1.02;;;21.90;99.90;;;;;;5071000;28;20099;-50
2023/07/25 10:18:57;;;;;;;5.70;0.98;;;21.50;99.90;;;;;;5070097;28;20036;-48
2023/07/25 10:21:27;;;;;;;1.75;0.80;;;21.70;99.90;;;;;;5068891;28;20385;-48
2023/07/25 10:23:58;;;;;;;1.63;1.02;;;22.60;99.90;;;;;;5068893;28;20029;-49
2023/07/25 10:26:24;;;;;;;1.63;0.90;;;20.90;99.90;;;;;;5068652;28;20435;-53
2023/07/25 10:28:49;;;;;;;0.93;0.70;;;23.40;99.90;;;;;;5068664;28;20009;-55
2023/07/25 10:31:31;;;;;;;0.95;0.77;;;23.00;99.90;;;;;;5083031;28;20036;-51
2023/07/25 10:34:00;;;;;;;2.10;0.88;;;23.90;99.90;;;;;;5089652;28;20052;-51
2023/07/25 10:36:25;;;;;;;;;;;23.30;99.90;;;;;;5091288;28;20105;-50
2023/07/25 10:39:05;;;;;;;2.72;1.10;;;23.70;99.90;;;;;;5090812;28;20559;-51
2023/07/25 10:41:31;;;;;;;1.63;1.00;;;23.00;99.90;;;;;;5090611;28;20210;-48
2023/07/25 10:43:59;;;;;;;1.48;0.93;;;24.20;99.90;;;;;;5090749;28;20043;-49
2023/07/25 10:46:30;;;;;;;1.42;0.80;;;22.30;99.90;;;;;;5090814;28;20032;-50
2023/07/25 10:49:00;;;;;;;3.67;1.20;;;19.80;99.90;;;;;;5090548;28;20021;-54
2023/07/25 10:51:48;;;;;;;2.40;1.17;;;20.60;99.90;;;;;;5090685;28;20036;-50
2023/07/25 10:54:17;;;;;;;1.95;1.00;;;21.30;99.90;;;;;;5090505;28;20047;-56
2023/07/25 10:57:13;;;;;;;4.30;1.58;;;18.90;99.90;;;;;;5090586;28;20039;-52
2023/07/25 11:00:04;;;;;;;2.75;1.42;;;18.00;99.90;;;;;;5090270;28;20024;-49
2023/07/25 11:02:43;;;;;;;1.98;1.35;;;20.60;99.90;;;;;;5090376;28;20135;-49
2023/07/25 11:05:11;;;;;;;;;;;19.50;99.90;;;;;;5090830;28;20082;-50
2023/07/25 11:07:51;;;;;;;4.28;1.23;;;18.90;99.90;;;;;;5090432;28;19926;-54
2023/07/25 11:10:25;;;;;;;4.55;1.13;;;19.40;99.90;;;;;;5090746;28;20124;-52
2023/07/25 11:12:55;;;;;;;2.03;1.25;;;19.40;99.90;;;;;;5090524;28;20035;-50
2023/07/25 11:15:20;;;;;;;2.65;1.50;;;19.70;99.90;;;;;;5090564;28;20055;-53
2023/07/25 11:17:47;;;;;;;4.45;1.40;;;17.50;99.90;;;;;;5090426;28;20099;-50
2023/07/25 11:20:18;;;;;;;3.47;1.20;;;17.80;99.90;;;;;;5090381;28;20115;-53
2023/07/25 11:22:51;;;;;;;4.28;1.35;;;18.80;99.90;;;;;;5090380;28;20024;-51
2023/07/25 11:25:17;;;;;;;3.47;1.65;;;;;;;;;;5090316;28;20052;-55
2023/07/25 11:27:47;;;;;;;3.85;1.42;;;19.90;99.90;;;;;;5090043;28;20028;-52
2023/07/25 11:30:20;;;;;;;3.40;1.63;;;19.80;99.90;;;;;;5090161;28;20036;-52
2023/07/25 11:32:52;;;;;;;2.40;1.20;;;19.00;99.90;;;;;;5090343;28;20468;-53
2023/07/25 11:35:18;;;;;;;3.28;1.27;;;20.90;99.90;;;;;;5090366;28;20027;-49
2023/07/25 11:37:45;;;;;;;4.22;1.40;;;20.70;99.90;;;;;;5090403;28;20102;-49
2023/07/25 11:40:16;;;;;;;2.13;1.20;;;23.00;99.90;;;;;;5090038;28;20036;-49
2023/07/25 11:42:43;;;;;;;3.33;1.27;;;22.60;99.90;;;;;;5090438;28;20043;-51
2023/07/25 11:45:13;;;;;;;3.03;1.50;;;22.80;99.90;;;;;;5090074;28;20480;-48
2023/07/25 11:47:41;;;;;;;2.42;1.33;;;23.90;99.90;;;;;;5090261;28;20046;-55
2023/07/25 11:50:08;;;;;;;1.45;0.93;;;23.10;99.90;;;;;;5090201;28;20059;-49
2023/07/25 11:52:36;;;;;;;3.42;1.50;;;20.00;99.90;;;;;;5090198;28;20476;-54
2023/07/25 11:55:02;;;;;;;3.13;1.55;;;22.10;99.90;;;;;;5090220;28;20491;-57
2023/07/25 11:57:28;;;;;;;2.15;1.20;;;21.30;99.90;;;;;;5090312;28;20027;-52
2023/07/25 11:59:55;;;;;;;3.85;1.23;;;17.10;99.90;;;;;;5090125;28;20020;-48
2023/07/25 12:02:24;;;;;;;1.50;0.90;;;19.90;99.90;;;;;;5090234;28;20076;-54
2023/07/25 12:04:50;;;;;;;3.50;1.48;;;19.00;99.90;;;;;;5090365;28;20081;-53
2023/07/25 12:07:16;;;;;;;2.28;1.30;;;20.10;99.90;;;;;;5091661;28;20369;-49
2023/07/25 12:09:50;;;;;;;1.90;1.23;;;20.10;99.90;;;;;;5093877;28;20047;-49
2023/07/25 12:12:16;;;;;;;2.03;1.27;;;;;;;;;;5093681;28;20036;-52
2023/07/25 12:14:57;;;;;;;3.15;1.45;;;20.20;99.90;;;;;;5093818;28;20123;-50
2023/07/25 12:17:22;;;;;;;2.33;1.30;;;20.00;99.90;;;;;;5093667;28;20028;-50
2023/07/25 12:19:52;;;;;;;3.25;1.42;;;21.70;99.90;;;;;;5093716;28;20032;-49
2023/07/25 12:22:19;;;;;;;2.97;1.40;;;21.80;99.90;;;;;;5093383;28;20024;-52
2023/07/25 12:24:45;;;;;;;2.42;1.30;;;;;;;;;;5093417;28;20499;-49
2023/07/25 12:27:18;;;;;;;3.38;1.52;;;21.20;99.90;;;;;;5093524;28;20027;-54
2023/07/25 12:29:44;;;;;;;1.73;1.25;;;20.60;99.90;;;;;;5092877;28;20475;-51
2023/07/25 12:32:11;;;;;;;3.33;1.63;;;21.10;99.90;;;;;;5093383;28;20480;-51
2023/07/25 12:34:36;;;;;;;2.70;1.00;;;20.70;99.90;;;;;;5093347;28;20040;-53
2023/07/25 12:37:02;;;;;;;1.63;1.00;;;18.10;99.90;;;;;;5093327;28;20017;-53
2023/07/25 12:39:29;;;;;;;1.85;1.02;;;23.50;99.90;;;;;;5092952;28;20059;-54
2023/07/25 12:41:55;;;;;;;2.03;1.20;;;19.30;99.90;;;;;;5093144;28;20024;-51
2023/07/25 12:44:21;;;;;;;2.13;1.40;;;22.50;99.90;;;;;;5093148;28;20074;-56
2023/07/25 12:46:47;;;;;;;2.58;1.30;;;21.40;99.90;;;;;;5093033;28;20492;-51
2023/07/25 12:49:12;;;;;;;1.50;1.10;;;21.80;99.90;;;;;;5093209;28;20064;-57
2023/07/25 12:51:38;;;;;;;2.35;1.23;;;21.50;99.90;;;;;;5093076;28;20115;-52
2023/07/25 12:54:04;;;;;;;2.17;1.20;;;19.10;99.90;;;;;;5092937;28;20016;-53
2023/07/25 12:56:29;;;;;;;2.95;1.38;;;21.20;99.90;;;;;;5091563;28;20021;-55
2023/07/25 12:58:55;;;;;;;2.55;1.45;;;20.00;99.90;;;;;;5092783;28;20023;-49
2023/07/25 13:01:21;;;;;;;2.35;1.30;;;20.40;99.90;;;;;;5092854;28;20032;-51
2023/07/25 13:03:47;;;;;;;3.70;1.30;;;23.20;99.90;;;;;;5091436;28;20026;-49
2023/07/25 13:06:12;;;;;;;2.17;1.20;;;21.80;99.90;;;;;;5092781;28;20032;-52
2023/07/25 13:08:38;;;;;;;7.25;1.60;;;;;;;;;;5091501;28;20028;-51
2023/07/25 13:11:04;;;;;;;4.50;1.17;;;21.80;99.90;;;;;;5092439;28;20016;-48
2023/07/25 13:13:30;;;;;;;1.85;1.23;;;24.20;99.90;;;;;;5092649;28;20046;-49
2023/07/25 13:15:56;;;;;;;2.53;1.50;;;19.50;99.90;;;;;;5092435;28;20024;-48